Terminal Aerodrome Forecast
Issued by NWS

Home | Current Version | Previous Version | Text Only | Print | Product List | Glossary On
Versions: 1 2 3 4 5 6 7 8 9 10 11 12 13 14 15 16 17 18 19 20 21 22 23 24
213
FTUS43 KGRB 301132
TAFAUW
TAF
KAUW 301132Z 3012/3112 27003KT 6SM BR SCT009 SCT100
      TEMPO 3012/3013 2SM BR BKN009
     FM301500 27006KT P6SM VCSH SCT015 BKN070
     FM301900 29007KT P6SM SCT035 BKN080
     FM302300 30007KT P6SM FEW040 SCT200
     FM310200 32005KT P6SM SKC
     FM310800 34003KT 2SM BR FEW010=

USA.gov is the U.S. government's official web portal to all federal, state and local government web resources and services.